Time;durP1;ratioP1;P1;durP2;ratioP2;P2;SDS_P1;SDS_P2;PMS_P1;PMS_P2;Temp;Humidity;BMP_temperature;BMP_pressure;BME280_temperature;BME280_humidity;BME280_pressure;Samples;Min_cycle;Max_cycle;Signal;HPM_P1;HPM_P2
2022/04/21 00:00:52;;;;;;;4.23;3.37;;;;;;;;;;5023312;28;20215;-31
2022/04/21 00:03:20;;;;;;;3.53;3.23;;;;;;;;;;5026959;28;20204;-33
2022/04/21 00:05:47;;;;;;;3.97;3.10;;;;;;;;;;5013586;28;20223;-40
2022/04/21 00:08:17;;;;;;;4.03;3.63;;;;;;;;;;5016269;28;20254;-40
2022/04/21 00:10:44;;;;;;;3.50;2.73;;;;;;;;;;5027931;28;20309;-39
2022/04/21 00:13:11;;;;;;;3.93;3.27;;;;;;;;;;5028848;28;20317;-34
2022/04/21 00:15:38;;;;;;;5.17;2.67;;;;;;;;;;5017968;28;20710;-39
2022/04/21 00:18:05;;;;;;;4.20;3.33;;;;;;;;;;5034422;28;20202;-33
2022/04/21 00:20:35;;;;;;;4.40;3.50;;;;;;;;;;5017653;28;20271;-39
2022/04/21 00:25:47;;;;;;;4.77;3.17;;;;;;;;;;5018447;28;20230;-42
2022/04/21 00:28:14;;;;;;;4.83;3.40;;;;;;;;;;5026815;28;20267;-33
2022/04/21 00:30:41;;;;;;;4.33;3.30;;;;;;;;;;5010828;28;20221;-41
2022/04/21 00:33:08;;;;;;;4.83;3.73;;;;;;;;;;5023870;28;20219;-35
2022/04/21 00:35:37;;;;;;;3.53;2.83;;;;;;;;;;5011325;28;20225;-33
2022/04/21 00:38:04;;;;;;;3.83;3.20;;;;;;;;;;5014894;28;20213;-38
2022/04/21 00:40:32;;;;;;;5.47;2.90;;;;;;;;;;5023905;28;20210;-34
2022/04/21 00:43:00;;;;;;;3.40;3.10;;;;;;;;;;5033327;28;20209;-40
2022/04/21 00:45:29;;;;;;;5.23;4.17;;;;;;;;;;5020010;28;20234;-39
2022/04/21 00:47:57;;;;;;;3.80;3.40;;;;;;;;;;5018635;28;20206;-41
2022/04/21 00:50:25;;;;;;;5.27;3.23;;;;;;;;;;5032706;28;20210;-36
2022/04/21 00:52:54;;;;;;;5.53;3.53;;;;;;;;;;5030710;28;20242;-38
2022/04/21 00:55:22;;;;;;;3.47;3.17;;;;;;;;;;5019388;28;20268;-35
2022/04/21 00:57:49;;;;;;;4.20;3.80;;;;;;;;;;5014190;28;20232;-35
2022/04/21 01:00:17;;;;;;;5.87;3.73;;;;;;;;;;5013673;28;20211;-42
2022/04/21 01:02:46;;;;;;;8.13;3.70;;;;;;;;;;5014788;28;20207;-35
2022/04/21 01:05:14;;;;;;;3.57;3.17;;;;;;;;;;5026514;28;20222;-40
2022/04/21 01:07:41;;;;;;;4.03;3.63;;;;;;;;;;5032581;28;20217;-36
2022/04/21 01:10:10;;;;;;;4.00;3.70;;;;;;;;;;5020381;28;20199;-40
2022/04/21 01:12:38;;;;;;;4.47;3.83;;;;;;;;;;5014527;28;20632;-37
2022/04/21 01:15:05;;;;;;;3.77;3.47;;;;;;;;;;5028760;28;20230;-39
2022/04/21 01:17:33;;;;;;;3.63;3.33;;;;;;;;;;5029419;28;20211;-38
2022/04/21 01:20:00;;;;;;;4.43;3.97;;;;;;;;;;5020713;28;20214;-38
2022/04/21 01:22:29;;;;;;;4.07;3.67;;;;;;;;;;5010177;28;20218;-40
2022/04/21 01:24:56;;;;;;;3.70;3.40;;;;;;;;;;5011638;28;20207;-41
2022/04/21 01:27:24;;;;;;;4.20;3.70;;;;;;;;;;5017531;28;20233;-31
2022/04/21 01:29:51;;;;;;;5.43;3.87;;;;;;;;;;5023669;28;20212;-37
2022/04/21 01:32:18;;;;;;;3.23;3.00;;;;;;;;;;5032024;28;20230;-40
2022/04/21 01:34:45;;;;;;;3.50;3.20;;;;;;;;;;5014020;28;20218;-36
2022/04/21 01:42:43;;;;;;;4.00;3.60;;;;;;;;;;5017932;28;20205;-34
2022/04/21 01:45:10;;;;;;;5.60;3.87;;;;;;;;;;5025728;28;20223;-35
2022/04/21 01:47:38;;;;;;;4.73;3.57;;;;;;;;;;5026880;28;20209;-38
2022/04/21 01:50:07;;;;;;;4.67;3.20;;;;;;;;;;5033038;28;20198;-34
2022/04/21 01:52:35;;;;;;;3.93;3.57;;;;;;;;;;5033661;28;20333;-39
2022/04/21 01:55:03;;;;;;;3.67;3.30;;;;;;;;;;5030366;28;20214;-39
2022/04/21 01:57:31;;;;;;;4.20;3.70;;;;;;;;;;5032486;28;20203;-39
2022/04/21 01:59:58;;;;;;;3.57;3.20;;;;;;;;;;5018643;28;20229;-38
2022/04/21 02:02:25;;;;;;;3.97;3.57;;;;;;;;;;5027093;28;20210;-39
2022/04/21 02:04:52;;;;;;;4.23;3.43;;;;;;;;;;5034493;28;20209;-40
2022/04/21 02:07:19;;;;;;;4.23;3.83;;;;;;;;;;5030065;28;20219;-38
2022/04/21 02:09:46;;;;;;;4.93;4.43;;;;;;;;;;5025378;28;20210;-35
2022/04/21 02:12:15;;;;;;;6.10;4.47;;;;;;;;;;5027471;28;20218;-37
2022/04/21 02:14:42;;;;;;;4.13;3.83;;;;;;;;;;5027204;28;20211;-37
2022/04/21 02:17:09;;;;;;;4.50;3.30;;;;;;;;;;5024048;28;20209;-38
2022/04/21 02:19:37;;;;;;;3.83;3.50;;;;;;;;;;5024280;28;20269;-35
2022/04/21 02:22:04;;;;;;;3.37;3.07;;;;;;;;;;5035721;28;20439;-32
2022/04/21 02:24:31;;;;;;;3.20;2.90;;;;;;;;;;5029551;28;20203;-40
2022/04/21 02:26:58;;;;;;;3.47;3.13;;;;;;;;;;5018730;28;20221;-37
2022/04/21 02:29:27;;;;;;;4.97;3.63;;;;;;;;;;5032306;28;20214;-38
2022/04/21 02:31:54;;;;;;;4.80;3.70;;;;;;;;;;5023206;28;20200;-40
2022/04/21 02:34:21;;;;;;;3.77;3.43;;;;;;;;;;5017785;28;20539;-38
2022/04/21 02:36:48;;;;;;;4.10;3.70;;;;;;;;;;5014290;28;20235;-39
2022/04/21 02:39:15;;;;;;;5.10;4.60;;;;;;;;;;5021948;28;20207;-39
2022/04/21 02:41:42;;;;;;;5.93;3.90;;;;;;;;;;5021518;28;20214;-37
2022/04/21 02:44:09;;;;;;;4.73;3.73;;;;;;;;;;5029494;28;20216;-40
2022/04/21 02:46:38;;;;;;;4.67;4.03;;;;;;;;;;5015125;28;20238;-36
2022/04/21 02:49:05;;;;;;;4.67;3.57;;;;;;;;;;5029668;28;20206;-35
2022/04/21 02:51:33;;;;;;;5.10;4.00;;;;;;;;;;5014977;28;20206;-36
2022/04/21 02:59:29;;;;;;;7.83;4.30;;;;;;;;;;5027054;28;20238;-42
2022/04/21 03:01:58;;;;;;;4.47;4.03;;;;;;;;;;5018176;28;20203;-37
2022/04/21 03:04:25;;;;;;;3.77;3.47;;;;;;;;;;5034396;28;20345;-37
2022/04/21 03:06:52;;;;;;;3.23;3.03;;;;;;;;;;5035016;28;20226;-37
2022/04/21 03:09:19;;;;;;;3.63;3.33;;;;;;;;;;5020016;28;20207;-38
2022/04/21 03:11:48;;;;;;;3.70;3.40;;;;;;;;;;5026400;28;20230;-36
2022/04/21 03:14:18;;;;;;;4.00;3.60;;;;;;;;;;5033356;28;20217;-39
2022/04/21 03:16:45;;;;;;;4.43;3.63;;;;;;;;;;5021291;28;20235;-37
2022/04/21 03:19:13;;;;;;;4.13;3.73;;;;;;;;;;5029552;28;20210;-35
2022/04/21 03:24:25;;;;;;;4.60;4.03;;;;;;;;;;5022618;28;20210;-37
2022/04/21 03:26:53;;;;;;;5.37;4.13;;;;;;;;;;5020165;28;20256;-36
2022/04/21 03:29:20;;;;;;;4.97;4.40;;;;;;;;;;5029659;28;20211;-37
2022/04/21 03:31:48;;;;;;;5.50;4.53;;;;;;;;;;5022587;28;20214;-32
2022/04/21 03:34:18;;;;;;;5.37;4.00;;;;;;;;;;5023217;28;20235;-35
2022/04/21 03:36:47;;;;;;;4.63;4.07;;;;;;;;;;5020393;28;20561;-38
2022/04/21 03:39:14;;;;;;;4.10;3.70;;;;;;;;;;5025426;28;20210;-39
2022/04/21 03:41:41;;;;;;;7.27;4.53;;;;;;;;;;5024401;28;20203;-41
2022/04/21 03:44:09;;;;;;;4.80;4.33;;;;;;;;;;5015455;28;20215;-34
2022/04/21 03:46:36;;;;;;;4.90;4.13;;;;;;;;;;5022405;28;20231;-38
2022/04/21 03:49:03;;;;;;;5.03;4.53;;;;;;;;;;5024388;28;20212;-41
2022/04/21 03:51:32;;;;;;;4.23;3.83;;;;;;;;;;5031724;28;20233;-35
2022/04/21 03:53:59;;;;;;;4.20;3.80;;;;;;;;;;5024694;28;20223;-35
2022/04/21 03:56:27;;;;;;;4.40;4.00;;;;;;;;;;5021871;28;20303;-38
2022/04/21 03:58:57;;;;;;;4.40;3.80;;;;;;;;;;5012517;28;20235;-40
2022/04/21 04:01:24;;;;;;;4.83;4.43;;;;;;;;;;5020658;28;20207;-43
2022/04/21 04:03:52;;;;;;;7.50;5.43;;;;;;;;;;5021691;28;20208;-32
2022/04/21 04:11:50;;;;;;;6.50;4.60;;;;;;;;;;5028117;28;20209;-41
2022/04/21 04:14:18;;;;;;;4.87;4.47;;;;;;;;;;5024962;28;20227;-37
2022/04/21 04:16:45;;;;;;;4.93;4.40;;;;;;;;;;5019250;28;20318;-34
2022/04/21 04:19:12;;;;;;;6.80;6.17;;;;;;;;;;5021371;28;20211;-37
2022/04/21 04:21:40;;;;;;;8.43;6.77;;;;;;;;;;5013515;28;20207;-40
2022/04/21 04:24:09;;;;;;;5.40;4.90;;;;;;;;;;5017044;28;20237;-34
2022/04/21 04:26:36;;;;;;;5.90;5.10;;;;;;;;;;5027907;28;20231;-38
2022/04/21 04:29:03;;;;;;;6.50;4.67;;;;;;;;;;5011645;28;20207;-39
2022/04/21 04:31:30;;;;;;;5.30;4.80;;;;;;;;;;5024384;28;20206;-37
2022/04/21 04:33:58;;;;;;;5.67;5.17;;;;;;;;;;5012628;28;20215;-37
2022/04/21 04:36:25;;;;;;;5.10;4.67;;;;;;;;;;5024934;28;20229;-40
2022/04/21 04:38:52;;;;;;;6.87;5.17;;;;;;;;;;5027279;28;20215;-39
2022/04/21 04:44:05;;;;;;;5.07;4.27;;;;;;;;;;5022269;28;20205;-35
2022/04/21 04:46:35;;;;;;;5.13;4.63;;;;;;;;;;5021607;28;20230;-37
2022/04/21 04:49:02;;;;;;;5.90;4.67;;;;;;;;;;5018084;28;20207;-34
2022/04/21 04:51:29;;;;;;;5.67;4.97;;;;;;;;;;5020298;28;20198;-31
2022/04/21 04:53:56;;;;;;;6.00;5.33;;;;;;;;;;5031745;28;20528;-39
2022/04/21 04:56:27;;;;;;;6.27;5.57;;;;;;;;;;5031989;28;20260;-32
2022/04/21 04:58:54;;;;;;;6.90;6.03;;;;;;;;;;5020208;28;20195;-38
2022/04/21 05:01:27;;;;;;;7.17;5.90;;;;;;;;;;5023287;28;20202;-33
2022/04/21 05:03:54;;;;;;;8.63;5.53;;;;;;;;;;5017047;28;20362;-40
2022/04/21 05:06:21;;;;;;;5.50;5.00;;;;;;;;;;5013085;28;20235;-36
2022/04/21 05:08:58;;;;;;;5.87;5.37;;;;;;;;;;5020672;28;20207;-38
2022/04/21 05:11:27;;;;;;;9.50;4.63;;;;;;;;;;5015754;28;20195;-32
2022/04/21 05:13:55;;;;;;;5.27;4.70;;;;;;;;;;5024588;28;20226;-36
2022/04/21 05:16:22;;;;;;;8.33;6.07;;;;;;;;;;5021498;28;20231;-33
2022/04/21 05:18:49;;;;;;;8.00;5.50;;;;;;;;;;5024079;28;20203;-36
2022/04/21 05:21:17;;;;;;;6.30;5.70;;;;;;;;;;5020704;28;20206;-36
2022/04/21 05:23:46;;;;;;;6.23;5.60;;;;;;;;;;5028582;28;20206;-33
2022/04/21 05:26:13;;;;;;;6.47;5.37;;;;;;;;;;5020624;28;20231;-40
2022/04/21 05:28:42;;;;;;;7.50;6.20;;;;;;;;;;5023589;28;20210;-32
2022/04/21 05:31:08;;;;;;;6.07;5.43;;;;;;;;;;5023006;28;20222;-37
2022/04/21 05:33:37;;;;;;;7.80;5.73;;;;;;;;;;5026680;28;20227;-33
2022/04/21 05:36:05;;;;;;;6.07;5.57;;;;;;;;;;5023708;28;20219;-37
2022/04/21 05:38:33;;;;;;;10.13;6.60;;;;;;;;;;5024810;28;20210;-34
2022/04/21 05:41:01;;;;;;;6.37;5.87;;;;;;;;;;5029348;28;20206;-36
2022/04/21 05:43:30;;;;;;;7.00;6.27;;;;;;;;;;5033508;28;20266;-35
2022/04/21 05:46:16;;;;;;;10.23;6.10;;;;;;;;;;5027177;28;20229;-33
2022/04/21 05:48:46;;;;;;;7.20;6.20;;;;;;;;;;5023350;28;20207;-40
2022/04/21 05:51:13;;;;;;;9.50;6.60;;;;;;;;;;5034921;28;20207;-33
2022/04/21 05:53:43;;;;;;;6.93;6.03;;;;;;;;;;5028536;28;20274;-33
2022/04/21 05:56:11;;;;;;;7.07;6.27;;;;;;;;;;5033175;28;20334;-37
2022/04/21 05:58:40;;;;;;;9.30;6.33;;;;;;;;;;5023322;28;20211;-38
2022/04/21 06:01:11;;;;;;;6.90;6.07;;;;;;;;;;5025592;28;20262;-38
2022/04/21 06:03:39;;;;;;;6.90;6.30;;;;;;;;;;5018350;28;20191;-39
2022/04/21 06:06:08;;;;;;;10.03;6.60;;;;;;;;;;5035194;28;20237;-36
2022/04/21 06:08:37;;;;;;;9.93;7.00;;;;;;;;;;5029519;28;20207;-35
2022/04/21 06:11:05;;;;;;;7.03;6.07;;;;;;;;;;5020350;28;20199;-35
2022/04/21 06:13:32;;;;;;;8.50;7.07;;;;;;;;;;5024111;28;20286;-41
2022/04/21 06:16:00;;;;;;;7.93;6.70;;;;;;;;;;5023646;28;20226;-36
2022/04/21 06:18:27;;;;;;;7.97;7.17;;;;;;;;;;5031629;28;20206;-34
2022/04/21 06:20:55;;;;;;;8.17;6.93;;;;;;;;;;5018363;28;20210;-36
2022/04/21 06:23:24;;;;;;;10.77;7.60;;;;;;;;;;5032896;28;20238;-42
2022/04/21 06:25:58;;;;;;;8.23;7.30;;;;;;;;;;5029365;28;20249;-38
2022/04/21 06:28:25;;;;;;;9.37;7.47;;;;;;;;;;5033516;28;20245;-34
2022/04/21 06:30:54;;;;;;;12.77;7.93;;;;;;;;;;5023462;28;20211;-35
2022/04/21 06:33:21;;;;;;;10.83;8.60;;;;;;;;;;5022061;28;20218;-41
2022/04/21 06:35:48;;;;;;;9.27;7.57;;;;;;;;;;5027873;28;20313;-39
2022/04/21 06:38:16;;;;;;;10.03;8.67;;;;;;;;;;5030496;28;20215;-34
2022/04/21 06:40:44;;;;;;;10.13;8.60;;;;;;;;;;5033610;28;20213;-35
2022/04/21 06:48:42;;;;;;;9.83;8.07;;;;;;;;;;5017570;28;20301;-39
2022/04/21 06:51:10;;;;;;;8.90;7.87;;;;;;;;;;5015511;28;20566;-34
2022/04/21 06:53:37;;;;;;;8.17;7.37;;;;;;;;;;5025314;28;20257;-40
2022/04/21 06:56:06;;;;;;;15.87;13.53;;;;;;;;;;5035221;28;20234;-32
2022/04/21 06:58:33;;;;;;;13.70;10.47;;;;;;;;;;5040821;28;20210;-34
2022/04/21 07:01:01;;;;;;;15.13;10.67;;;;;;;;;;5035113;28;20206;-37
2022/04/21 07:03:39;;;;;;;26.90;16.73;;;;;;;;;;5026920;28;20198;-34
2022/04/21 07:06:06;;;;;;;11.37;9.87;;;;;;;;;;5026186;28;20259;-35
2022/04/21 07:08:38;;;;;;;8.83;7.93;;;;;;;;;;5031767;28;20280;-41
2022/04/21 07:11:08;;;;;;;13.50;11.07;;;;;;;;;;5025062;28;20337;-37
2022/04/21 07:13:35;;;;;;;9.20;7.80;;;;;;;;;;5021116;28;20230;-37
2022/04/21 07:16:02;;;;;;;11.57;9.53;;;;;;;;;;5013794;28;20313;-41
2022/04/21 07:18:29;;;;;;;8.40;7.57;;;;;;;;;;5009915;28;20209;-40
2022/04/21 07:20:57;;;;;;;7.60;6.90;;;;;;;;;;5009798;28;20211;-35
2022/04/21 07:23:24;;;;;;;12.33;8.20;;;;;;;;;;5006266;28;20207;-37
2022/04/21 07:25:51;;;;;;;8.17;7.13;;;;;;;;;;5023817;28;20235;-36
2022/04/21 07:28:20;;;;;;;8.47;7.67;;;;;;;;;;5019079;28;20203;-37
2022/04/21 07:30:47;;;;;;;9.93;7.40;;;;;;;;;;5022053;28;20207;-37
2022/04/21 07:33:15;;;;;;;8.00;7.20;;;;;;;;;;5022103;28;20211;-41
2022/04/21 07:35:42;;;;;;;7.90;7.10;;;;;;;;;;5021223;28;20225;-35
2022/04/21 07:38:09;;;;;;;8.60;7.27;;;;;;;;;;5020515;28;20211;-36
2022/04/21 07:40:38;;;;;;;8.80;7.37;;;;;;;;;;5019214;28;20206;-32
2022/04/21 07:43:08;;;;;;;8.43;7.33;;;;;;;;;;5019503;28;20207;-35
2022/04/21 07:45:38;;;;;;;8.93;7.03;;;;;;;;;;5022385;28;20233;-35
2022/04/21 07:48:05;;;;;;;8.27;6.80;;;;;;;;;;5026400;28;20254;-35
2022/04/21 07:50:32;;;;;;;8.53;7.57;;;;;;;;;;5028031;28;20202;-40
2022/04/21 07:53:14;;;;;;;9.13;7.10;;;;;;;;;;5017779;28;20218;-41
2022/04/21 07:55:42;;;;;;;7.47;6.67;;;;;;;;;;5018879;28;20229;-33
2022/04/21 07:58:10;;;;;;;7.87;6.70;;;;;;;;;;5011699;28;20204;-37
2022/04/21 08:00:40;;;;;;;8.20;7.30;;;;;;;;;;5018479;28;20216;-36
2022/04/21 08:03:07;;;;;;;8.37;7.57;;;;;;;;;;5017464;28;20230;-38
2022/04/21 08:05:35;;;;;;;7.73;6.83;;;;;;;;;;5010737;28;20250;-30
2022/04/21 08:08:03;;;;;;;8.10;6.97;;;;;;;;;;5012363;28;20210;-36
2022/04/21 08:10:30;;;;;;;7.10;6.30;;;;;;;;;;5023371;28;20214;-37
2022/04/21 08:12:59;;;;;;;7.83;7.03;;;;;;;;;;5010252;28;20203;-39
2022/04/21 08:15:27;;;;;;;9.83;6.57;;;;;;;;;;5022059;28;20308;-36
2022/04/21 08:17:56;;;;;;;8.40;7.13;;;;;;;;;;5021917;28;20207;-38
2022/04/21 08:20:23;;;;;;;7.77;6.73;;;;;;;;;;5020407;28;20310;-36
2022/04/21 08:22:51;;;;;;;7.77;6.97;;;;;;;;;;5016612;28;20210;-34
2022/04/21 08:33:42;;;;;;;7.80;6.93;;;;;;;;;;5020713;28;20244;-37
2022/04/21 08:36:10;;;;;;;7.37;6.47;;;;;;;;;;5024106;28;20228;-38
2022/04/21 08:38:38;;;;;;;7.10;6.27;;;;;;;;;;5025913;28;20214;-38
2022/04/21 08:41:07;;;;;;;7.23;6.00;;;;;;;;;;5029683;28;20290;-41
2022/04/21 08:43:35;;;;;;;6.17;5.50;;;;;;;;;;5019289;28;20290;-40
2022/04/21 08:46:04;;;;;;;6.60;5.53;;;;;;;;;;5014713;28;20233;-39
2022/04/21 08:48:33;;;;;;;5.90;4.90;;;;;;;;;;5012659;28;20203;-36
2022/04/21 08:51:02;;;;;;;7.47;5.40;;;;;;;;;;5014705;28;20289;-38
2022/04/21 08:53:29;;;;;;;7.47;4.90;;;;;;;;;;5016761;28;20203;-38
2022/04/21 08:55:56;;;;;;;6.13;5.53;;;;;;;;;;5013648;28;20256;-40
2022/04/21 08:58:24;;;;;;;7.50;5.20;;;;;;;;;;5027858;28;20207;-38
2022/04/21 09:00:53;;;;;;;5.40;4.90;;;;;;;;;;5019918;28;20206;-34
2022/04/21 09:03:22;;;;;;;5.97;5.37;;;;;;;;;;5027652;28;20229;-37
2022/04/21 09:05:49;;;;;;;5.47;4.87;;;;;;;;;;5014009;28;20216;-40
2022/04/21 09:08:21;;;;;;;6.53;5.17;;;;;;;;;;5011843;28;20211;-36
2022/04/21 09:11:02;;;;;;;5.87;5.33;;;;;;;;;;5018431;28;20207;-39
2022/04/21 09:13:32;;;;;;;7.27;5.00;;;;;;;;;;5029489;28;20202;-42
2022/04/21 09:16:02;;;;;;;6.27;5.17;;;;;;;;;;5017352;28;20226;-36
2022/04/21 09:18:36;;;;;;;5.67;5.13;;;;;;;;;;5020734;28;20202;-43
2022/04/21 09:21:07;;;;;;;5.40;4.90;;;;;;;;;;5013218;28;20187;-35
2022/04/21 09:23:36;;;;;;;6.00;5.20;;;;;;;;;;5013657;28;20210;-42
2022/04/21 09:26:12;;;;;;;5.87;5.37;;;;;;;;;;5017002;28;20223;-36
2022/04/21 09:28:40;;;;;;;6.37;5.17;;;;;;;;;;5015445;28;20207;-38
2022/04/21 09:31:07;;;;;;;6.20;5.50;;;;;;;;;;5013368;28;20211;-38
2022/04/21 09:33:35;;;;;;;6.83;5.40;;;;;;;;;;5021962;28;20210;-38
2022/04/21 09:36:03;;;;;;;5.80;5.20;;;;;;;;;;5020493;28;20223;-35
2022/04/21 09:38:30;;;;;;;5.27;4.80;;;;;;;;;;5018555;28;20272;-33
2022/04/21 09:41:05;;;;;;;7.23;5.23;;;;;;;;;;5025402;28;20217;-34
2022/04/21 09:43:35;;;;;;;5.53;4.77;;;;;;;;;;5021884;28;20191;-35
2022/04/21 09:46:14;;;;;;;5.57;5.07;;;;;;;;;;5020348;28;20218;-35
2022/04/21 09:48:41;;;;;;;5.60;4.63;;;;;;;;;;5021176;28;20203;-34
2022/04/21 09:51:10;;;;;;;5.40;4.80;;;;;;;;;;5019477;28;20195;-35
2022/04/21 09:53:48;;;;;;;5.33;4.93;;;;;;;;;;5019270;28;20257;-37
2022/04/21 09:56:17;;;;;;;4.77;4.27;;;;;;;;;;5022284;28;20226;-36
2022/04/21 09:58:44;;;;;;;5.63;5.13;;;;;;;;;;5015162;28;20209;-36
2022/04/21 10:01:11;;;;;;;4.83;4.33;;;;;;;;;;5014297;28;20273;-36
2022/04/21 10:03:41;;;;;;;6.60;4.57;;;;;;;;;;5030304;28;20203;-40
2022/04/21 10:06:08;;;;;;;4.20;3.80;;;;;;;;;;5025689;28;20218;-39
2022/04/21 10:08:40;;;;;;;4.60;4.20;;;;;;;;;;5024077;28;20210;-37
2022/04/21 10:11:07;;;;;;;4.53;4.10;;;;;;;;;;5031007;28;20205;-42
2022/04/21 10:13:36;;;;;;;7.93;4.30;;;;;;;;;;5035578;28;20207;-36
2022/04/21 10:16:04;;;;;;;4.27;3.30;;;;;;;;;;5028483;28;20233;-40
2022/04/21 10:18:31;;;;;;;3.67;3.30;;;;;;;;;;5022372;28;20195;-34
2022/04/21 10:20:58;;;;;;;3.30;3.10;;;;;;;;;;5014383;28;20212;-36
2022/04/21 10:23:28;;;;;;;4.83;3.47;;;;;;;;;;5025530;28;20241;-37
2022/04/21 10:25:59;;;;;;;3.80;3.47;;;;;;;;;;5035152;28;20678;-34
2022/04/21 10:28:41;;;;;;;4.73;3.10;;;;;;;;;;5025220;28;20219;-38
2022/04/21 10:31:29;;;;;;;3.50;3.20;;;;;;;;;;5022683;28;20213;-36
2022/04/21 10:33:57;;;;;;;5.40;4.03;;;;;;;;;;5015145;28;20209;-40
2022/04/21 10:36:37;;;;;;;3.70;3.40;;;;;;;;;;5032185;28;20285;-41
2022/04/21 10:39:11;;;;;;;4.17;3.40;;;;;;;;;;5030769;28;20209;-33
2022/04/21 10:41:39;;;;;;;3.13;2.90;;;;;;;;;;5029998;28;20204;-36
2022/04/21 10:44:13;;;;;;;4.00;3.40;;;;;;;;;;5013624;28;20203;-38
2022/04/21 10:46:42;;;;;;;3.50;3.20;;;;;;;;;;5022549;28;20226;-34
2022/04/21 10:49:10;;;;;;;3.30;3.00;;;;;;;;;;5029963;28;20206;-39
2022/04/21 10:57:48;;;;;;;2.70;2.50;;;;;;;;;;5022797;28;20275;-36
2022/04/21 11:00:24;;;;;;;2.80;2.60;;;;;;;;;;5028806;28;20218;-33
2022/04/21 11:03:01;;;;;;;2.73;2.53;;;;;;;;;;5031186;28;20212;-34
2022/04/21 11:05:31;;;;;;;2.57;2.37;;;;;;;;;;5028744;28;20226;-39
2022/04/21 11:07:59;;;;;;;2.53;2.33;;;;;;;;;;5030183;28;20229;-36
2022/04/21 11:10:26;;;;;;;3.43;2.40;;;;;;;;;;5034280;28;20215;-35
2022/04/21 11:12:54;;;;;;;2.80;2.60;;;;;;;;;;5027793;28;20241;-36
2022/04/21 11:15:31;;;;;;;3.50;3.20;;;;;;;;;;5028352;28;20243;-38
2022/04/21 11:18:07;;;;;;;5.23;3.90;;;;;;;;;;5021580;28;20202;-38
2022/04/21 11:20:35;;;;;;;3.03;2.70;;;;;;;;;;5029476;28;20230;-41
2022/04/21 11:23:02;;;;;;;2.20;2.10;;;;;;;;;;5016973;28;20309;-35
2022/04/21 11:25:33;;;;;;;2.50;2.30;;;;;;;;;;5022468;28;20229;-37
2022/04/21 11:28:01;;;;;;;3.30;3.00;;;;;;;;;;5029732;28;20210;-35
2022/04/21 11:30:29;;;;;;;3.30;2.90;;;;;;;;;;5022476;28;20203;-38
2022/04/21 11:32:56;;;;;;;3.30;3.00;;;;;;;;;;5024649;28;20207;-37
2022/04/21 11:35:25;;;;;;;3.13;2.90;;;;;;;;;;5014108;28;20223;-38
2022/04/21 11:37:56;;;;;;;2.67;2.47;;;;;;;;;;5029759;28;20211;-37
2022/04/21 11:40:24;;;;;;;3.27;2.97;;;;;;;;;;5027433;28;20219;-36
2022/04/21 11:42:52;;;;;;;2.57;2.37;;;;;;;;;;5020931;28;20211;-35
2022/04/21 11:45:19;;;;;;;2.67;2.47;;;;;;;;;;5016161;28;20227;-38
2022/04/21 11:47:47;;;;;;;2.80;2.60;;;;;;;;;;5019270;28;20223;-37
2022/04/21 11:50:19;;;;;;;3.53;3.23;;;;;;;;;;5027841;28;20561;-39
2022/04/21 11:52:52;;;;;;;4.73;3.20;;;;;;;;;;5029683;28;20199;-40
2022/04/21 11:55:20;;;;;;;3.17;2.87;;;;;;;;;;5025787;28;20238;-39
2022/04/21 11:57:47;;;;;;;2.70;2.50;;;;;;;;;;5033385;28;20203;-35
2022/04/21 12:00:16;;;;;;;3.10;2.90;;;;;;;;;;5028402;28;20210;-31
2022/04/21 12:08:14;;;;;;;2.37;2.20;;;;;;;;;;5029206;28;20209;-37
2022/04/21 12:10:42;;;;;;;2.50;2.30;;;;;;;;;;5033080;28;20210;-32
2022/04/21 12:13:11;;;;;;;2.47;2.13;;;;;;;;;;5032967;28;20215;-36
2022/04/21 12:15:39;;;;;;;2.60;2.40;;;;;;;;;;5020441;28;20226;-32
2022/04/21 12:18:07;;;;;;;2.73;2.53;;;;;;;;;;5017455;28;20202;-37
2022/04/21 12:20:34;;;;;;;2.53;2.30;;;;;;;;;;5013004;28;20252;-35
2022/04/21 12:23:01;;;;;;;2.23;2.03;;;;;;;;;;5012424;28;20215;-37
2022/04/21 12:25:33;;;;;;;3.07;2.60;;;;;;;;;;5026965;28;20233;-38
2022/04/21 12:28:04;;;;;;;3.97;2.30;;;;;;;;;;5014111;28;20203;-39
2022/04/21 12:30:32;;;;;;;2.10;2.00;;;;;;;;;;5015481;28;20225;-37
2022/04/21 12:32:59;;;;;;;3.13;2.80;;;;;;;;;;5025662;28;20199;-39
2022/04/21 12:35:45;;;;;;;3.43;2.03;;;;;;;;;;5018276;28;20317;-36
2022/04/21 12:41:04;;;;;;;3.93;2.17;;;;;;;;;;5025573;28;20201;-39
2022/04/21 12:43:32;;;;;;;2.23;1.77;;;;;;;;;;5033400;28;20240;-32
2022/04/21 12:46:00;;;;;;;1.80;1.70;;;;;;;;;;5017385;28;20235;-38
2022/04/21 12:48:27;;;;;;;2.40;2.20;;;;;;;;;;5032594;28;20209;-32
2022/04/21 12:50:56;;;;;;;2.37;2.03;;;;;;;;;;5013954;28;20317;-35
2022/04/21 12:53:27;;;;;;;1.60;1.50;;;;;;;;;;5024712;28;20278;-37
2022/04/21 12:55:54;;;;;;;1.97;1.87;;;;;;;;;;5029481;28;20227;-37
2022/04/21 12:58:32;;;;;;;2.90;2.60;;;;;;;;;;5012377;28;20235;-33
2022/04/21 13:01:01;;;;;;;3.43;2.50;;;;;;;;;;5012694;28;20206;-31
2022/04/21 13:03:28;;;;;;;3.37;2.63;;;;;;;;;;5025426;28;20210;-39
2022/04/21 13:05:56;;;;;;;2.30;2.20;;;;;;;;;;5012616;28;20226;-36
2022/04/21 13:08:24;;;;;;;2.07;1.87;;;;;;;;;;5013217;28;20219;-34
2022/04/21 13:10:53;;;;;;;2.97;2.77;;;;;;;;;;5031231;28;20210;-41
2022/04/21 13:13:20;;;;;;;2.23;2.10;;;;;;;;;;5032882;28;20230;-36
2022/04/21 13:15:49;;;;;;;3.23;2.37;;;;;;;;;;5019277;28;20632;-32
2022/04/21 13:18:17;;;;;;;3.83;2.60;;;;;;;;;;5026183;28;20212;-39
2022/04/21 13:23:29;;;;;;;2.60;2.40;;;;;;;;;;5028891;28;20276;-40
2022/04/21 13:25:56;;;;;;;2.20;2.00;;;;;;;;;;5029800;28;20219;-39
2022/04/21 13:28:24;;;;;;;2.47;2.27;;;;;;;;;;5013228;28;20199;-35
2022/04/21 13:33:21;;;;;;;2.23;1.83;;;;;;;;;;5022701;28;20234;-38
2022/04/21 13:33:38;;;;;;;2.77;1.80;;;;;;;;;;5022465;28;20203;-36
2022/04/21 13:36:07;;;;;;;1.70;1.60;;;;;;;;;;5014915;28;20235;-33
2022/04/21 13:38:34;;;;;;;2.30;2.13;;;;;;;;;;5019778;28;20279;-35
2022/04/21 13:41:01;;;;;;;1.93;1.70;;;;;;;;;;5022724;28;20199;-35
2022/04/21 13:43:28;;;;;;;2.10;2.00;;;;;;;;;;5032051;28;20207;-34
2022/04/21 13:45:58;;;;;;;2.43;2.23;;;;;;;;;;5023357;28;20210;-35
2022/04/21 13:48:25;;;;;;;2.50;1.93;;;;;;;;;;5024822;28;20202;-38
2022/04/21 13:50:53;;;;;;;3.97;2.30;;;;;;;;;;5035334;28;20205;-34
2022/04/21 13:53:20;;;;;;;5.67;2.10;;;;;;;;;;5020244;28;20213;-35
2022/04/21 13:55:49;;;;;;;2.17;1.97;;;;;;;;;;5025007;28;20234;-35
2022/04/21 13:58:16;;;;;;;2.20;2.10;;;;;;;;;;5020383;28;20316;-37
2022/04/21 14:00:45;;;;;;;2.97;2.07;;;;;;;;;;5027425;28;20237;-40
2022/04/21 14:03:14;;;;;;;2.33;2.13;;;;;;;;;;5035574;28;20211;-33
2022/04/21 14:05:41;;;;;;;2.30;2.10;;;;;;;;;;5018154;28;20219;-34
2022/04/21 14:08:09;;;;;;;3.00;2.03;;;;;;;;;;5023764;28;20199;-35
2022/04/21 14:10:36;;;;;;;2.50;2.10;;;;;;;;;;5034208;28;20206;-37
2022/04/21 14:13:04;;;;;;;3.67;2.13;;;;;;;;;;5035794;28;20210;-34
2022/04/21 14:15:31;;;;;;;2.03;1.93;;;;;;;;;;5027032;28;20222;-35
2022/04/21 14:18:00;;;;;;;2.37;2.20;;;;;;;;;;5030487;28;20206;-34
2022/04/21 14:20:28;;;;;;;3.53;2.30;;;;;;;;;;5036210;28;20206;-33
2022/04/21 14:22:56;;;;;;;2.37;2.17;;;;;;;;;;5028846;28;20204;-37
2022/04/21 14:25:23;;;;;;;2.20;2.00;;;;;;;;;;5024399;28;20235;-40
2022/04/21 14:27:50;;;;;;;2.83;1.93;;;;;;;;;;5034370;28;20212;-37
2022/04/21 14:30:17;;;;;;;1.80;1.70;;;;;;;;;;5029395;28;20301;-39
2022/04/21 14:32:45;;;;;;;2.50;2.30;;;;;;;;;;5026475;28;20208;-36
2022/04/21 14:35:12;;;;;;;2.40;2.03;;;;;;;;;;5035068;28;20241;-33
2022/04/21 14:45:55;;;;;;;2.30;1.90;;;;;;;;;;5019827;28;20329;-37
2022/04/21 14:48:22;;;;;;;1.83;1.73;;;;;;;;;;5023139;28;20207;-32
2022/04/21 14:51:11;;;;;;;1.70;1.60;;;;;;;;;;5034316;28;20214;-34
2022/04/21 14:53:43;;;;;;;2.13;2.00;;;;;;;;;;5024699;28;20200;-35
2022/04/21 14:56:11;;;;;;;2.27;1.77;;;;;;;;;;5022780;28;20232;-34
2022/04/21 14:58:38;;;;;;;1.63;1.53;;;;;;;;;;5024663;28;20206;-34
2022/04/21 15:01:05;;;;;;;2.20;2.00;;;;;;;;;;5032830;28;20207;-35
2022/04/21 15:03:32;;;;;;;3.83;2.10;;;;;;;;;;5032350;28;20210;-34
2022/04/21 15:06:00;;;;;;;2.43;2.10;;;;;;;;;;5035683;28;20258;-36
2022/04/21 15:08:27;;;;;;;2.00;1.77;;;;;;;;;;5025932;28;20294;-37
2022/04/21 15:10:55;;;;;;;2.57;1.87;;;;;;;;;;5017984;28;20203;-36
2022/04/21 15:13:22;;;;;;;2.37;1.60;;;;;;;;;;5034343;28;20297;-38
2022/04/21 15:15:50;;;;;;;1.70;1.60;;;;;;;;;;5022248;28;20235;-37
2022/04/21 15:18:17;;;;;;;1.63;1.20;;;;;;;;;;5021150;28;20210;-32
2022/04/21 15:20:44;;;;;;;1.70;1.60;;;;;;;;;;5016613;28;20210;-34
2022/04/21 15:23:12;;;;;;;1.60;1.50;;;;;;;;;;5018662;28;20290;-39
2022/04/21 15:25:39;;;;;;;2.77;1.53;;;;;;;;;;5023447;28;20264;-34
2022/04/21 15:28:08;;;;;;;1.73;1.60;;;;;;;;;;5034593;28;20209;-33
2022/04/21 15:30:37;;;;;;;2.03;1.13;;;;;;;;;;5021889;28;20227;-38
2022/04/21 15:33:05;;;;;;;1.97;1.80;;;;;;;;;;5029578;28;20210;-38
2022/04/21 15:35:32;;;;;;;2.10;1.90;;;;;;;;;;5014412;28;20227;-35
2022/04/21 15:37:59;;;;;;;2.17;1.80;;;;;;;;;;5014515;28;20199;-39
2022/04/21 15:40:26;;;;;;;1.77;1.60;;;;;;;;;;5030929;28;20211;-35
2022/04/21 15:42:54;;;;;;;2.27;1.90;;;;;;;;;;5026536;28;20213;-37
2022/04/21 15:45:23;;;;;;;6.40;1.77;;;;;;;;;;5028134;28;20231;-36
2022/04/21 15:47:50;;;;;;;2.57;1.30;;;;;;;;;;5023403;28;20218;-37
2022/04/21 15:50:17;;;;;;;3.50;1.70;;;;;;;;;;5014477;28;20203;-41
2022/04/21 15:52:44;;;;;;;1.90;1.80;;;;;;;;;;5014552;28;20203;-39
2022/04/21 16:00:43;;;;;;;2.67;2.33;;;;;;;;;;5018520;28;20289;-35